Terminal Aerodrome Forecast
Issued by NWS

Home | Current Version | Previous Version | Text Only | Print | Product List | Glossary On
Versions: 1 2 3 4 5 6 7 8 9 10 11 12 13 14 15 16 17 18
000
FTUS43 KMQT 232330
TAFCMX
TAF
KCMX 232330Z 2400/2424 28012KT P6SM VCSH BKN015
     FM240200 28008KT P6SM VCSH BKN020
     FM240500 28007KT P6SM BKN025
     FM241100 27005KT P6SM SCT040
     FM241600 22003KT P6SM SCT150
     FM242200 10008KT P6SM BKN200=

USA.gov is the U.S. government's official web portal to all federal, state and local government web resources and services.